sensor_id;sensor_type;location;lat;lon;timestamp;P1;durP1;ratioP1;P2;durP2;ratioP2
5022;SDS011;2530;47.990;7.866;2024-02-21T00:00:06;7.30;;;3.70;;
5022;SDS011;2530;47.990;7.866;2024-02-21T00:02:32;3.63;;;2.83;;
5022;SDS011;2530;47.990;7.866;2024-02-21T00:04:58;9.27;;;3.33;;
5022;SDS011;2530;47.990;7.866;2024-02-21T00:07:23;4.85;;;2.97;;
5022;SDS011;2530;47.990;7.866;2024-02-21T00:09:49;5.63;;;3.08;;
5022;SDS011;2530;47.990;7.866;2024-02-21T00:12:14;6.10;;;2.60;;
5022;SDS011;2530;47.990;7.866;2024-02-21T00:14:40;5.67;;;2.97;;
5022;SDS011;2530;47.990;7.866;2024-02-21T00:17:06;3.37;;;3.00;;
5022;SDS011;2530;47.990;7.866;2024-02-21T00:19:33;5.10;;;2.70;;
5022;SDS011;2530;47.990;7.866;2024-02-21T00:21:59;3.55;;;2.90;;
5022;SDS011;2530;47.990;7.866;2024-02-21T00:24:24;4.30;;;3.30;;
5022;SDS011;2530;47.990;7.866;2024-02-21T00:26:50;5.22;;;2.90;;
5022;SDS011;2530;47.990;7.866;2024-02-21T00:29:15;5.88;;;3.33;;
5022;SDS011;2530;47.990;7.866;2024-02-21T00:31:41;4.20;;;3.20;;
5022;SDS011;2530;47.990;7.866;2024-02-21T00:34:06;6.60;;;3.20;;
5022;SDS011;2530;47.990;7.866;2024-02-21T00:36:32;4.90;;;3.00;;
5022;SDS011;2530;47.990;7.866;2024-02-21T00:38:58;4.67;;;3.10;;
5022;SDS011;2530;47.990;7.866;2024-02-21T00:41:23;4.07;;;2.70;;
5022;SDS011;2530;47.990;7.866;2024-02-21T00:43:49;4.00;;;2.77;;
5022;SDS011;2530;47.990;7.866;2024-02-21T00:46:15;5.75;;;3.10;;
5022;SDS011;2530;47.990;7.866;2024-02-21T00:48:40;6.93;;;3.03;;
5022;SDS011;2530;47.990;7.866;2024-02-21T00:51:06;6.17;;;3.00;;
5022;SDS011;2530;47.990;7.866;2024-02-21T00:53:32;4.13;;;2.73;;
5022;SDS011;2530;47.990;7.866;2024-02-21T00:55:57;4.40;;;3.20;;
5022;SDS011;2530;47.990;7.866;2024-02-21T00:58:23;4.40;;;3.40;;
5022;SDS011;2530;47.990;7.866;2024-02-21T01:00:48;3.40;;;2.90;;
5022;SDS011;2530;47.990;7.866;2024-02-21T01:03:14;4.57;;;2.80;;
5022;SDS011;2530;47.990;7.866;2024-02-21T01:05:39;7.22;;;3.00;;
5022;SDS011;2530;47.990;7.866;2024-02-21T01:08:05;3.30;;;2.43;;
5022;SDS011;2530;47.990;7.866;2024-02-21T01:10:31;3.97;;;3.00;;
5022;SDS011;2530;47.990;7.866;2024-02-21T01:12:56;5.53;;;3.00;;
5022;SDS011;2530;47.990;7.866;2024-02-21T01:15:22;7.30;;;2.70;;
5022;SDS011;2530;47.990;7.866;2024-02-21T01:17:47;6.10;;;2.97;;
5022;SDS011;2530;47.990;7.866;2024-02-21T01:20:14;4.00;;;2.95;;
5022;SDS011;2530;47.990;7.866;2024-02-21T01:22:40;4.40;;;2.70;;
5022;SDS011;2530;47.990;7.866;2024-02-21T01:25:06;6.37;;;3.10;;
5022;SDS011;2530;47.990;7.866;2024-02-21T01:27:32;5.57;;;2.70;;
5022;SDS011;2530;47.990;7.866;2024-02-21T01:29:57;4.35;;;2.50;;
5022;SDS011;2530;47.990;7.866;2024-02-21T01:32:23;5.20;;;2.70;;
5022;SDS011;2530;47.990;7.866;2024-02-21T01:34:49;4.95;;;3.00;;
5022;SDS011;2530;47.990;7.866;2024-02-21T01:37:15;4.90;;;2.47;;
5022;SDS011;2530;47.990;7.866;2024-02-21T01:39:40;3.37;;;2.60;;
5022;SDS011;2530;47.990;7.866;2024-02-21T01:42:06;5.83;;;3.10;;
5022;SDS011;2530;47.990;7.866;2024-02-21T01:44:32;3.70;;;2.60;;
5022;SDS011;2530;47.990;7.866;2024-02-21T01:46:57;4.90;;;2.47;;
5022;SDS011;2530;47.990;7.866;2024-02-21T01:49:23;5.90;;;3.08;;
5022;SDS011;2530;47.990;7.866;2024-02-21T01:51:49;4.97;;;2.65;;
5022;SDS011;2530;47.990;7.866;2024-02-21T01:54:16;4.63;;;2.90;;
5022;SDS011;2530;47.990;7.866;2024-02-21T01:56:43;7.15;;;3.40;;
5022;SDS011;2530;47.990;7.866;2024-02-21T01:59:10;5.68;;;3.10;;
5022;SDS011;2530;47.990;7.866;2024-02-21T02:01:36;5.35;;;3.15;;
5022;SDS011;2530;47.990;7.866;2024-02-21T02:04:02;3.90;;;2.70;;
5022;SDS011;2530;47.990;7.866;2024-02-21T02:06:30;3.35;;;2.50;;
5022;SDS011;2530;47.990;7.866;2024-02-21T02:08:56;4.57;;;2.77;;
5022;SDS011;2530;47.990;7.866;2024-02-21T02:11:22;4.28;;;2.60;;
5022;SDS011;2530;47.990;7.866;2024-02-21T02:13:47;6.10;;;2.88;;
5022;SDS011;2530;47.990;7.866;2024-02-21T02:16:13;5.60;;;3.00;;
5022;SDS011;2530;47.990;7.866;2024-02-21T02:18:38;6.15;;;3.00;;
5022;SDS011;2530;47.990;7.866;2024-02-21T02:21:04;6.03;;;2.63;;
5022;SDS011;2530;47.990;7.866;2024-02-21T02:23:39;3.22;;;2.53;;
5022;SDS011;2530;47.990;7.866;2024-02-21T02:26:06;4.73;;;2.87;;
5022;SDS011;2530;47.990;7.866;2024-02-21T02:28:32;4.03;;;2.70;;
5022;SDS011;2530;47.990;7.866;2024-02-21T02:30:58;3.20;;;2.70;;
5022;SDS011;2530;47.990;7.866;2024-02-21T02:33:23;5.63;;;3.23;;
5022;SDS011;2530;47.990;7.866;2024-02-21T02:35:49;4.50;;;2.70;;
5022;SDS011;2530;47.990;7.866;2024-02-21T02:38:14;4.17;;;2.43;;
5022;SDS011;2530;47.990;7.866;2024-02-21T02:40:40;4.50;;;2.90;;
5022;SDS011;2530;47.990;7.866;2024-02-21T02:43:06;7.70;;;2.80;;
5022;SDS011;2530;47.990;7.866;2024-02-21T02:45:32;3.40;;;2.50;;
5022;SDS011;2530;47.990;7.866;2024-02-21T02:47:58;4.03;;;2.50;;
5022;SDS011;2530;47.990;7.866;2024-02-21T02:50:24;5.85;;;2.80;;
5022;SDS011;2530;47.990;7.866;2024-02-21T02:52:50;3.40;;;2.47;;
5022;SDS011;2530;47.990;7.866;2024-02-21T02:55:17;6.00;;;2.90;;
5022;SDS011;2530;47.990;7.866;2024-02-21T02:57:43;3.27;;;2.93;;
5022;SDS011;2530;47.990;7.866;2024-02-21T03:00:12;3.70;;;2.70;;
5022;SDS011;2530;47.990;7.866;2024-02-21T03:02:39;4.90;;;2.90;;
5022;SDS011;2530;47.990;7.866;2024-02-21T03:05:13;5.25;;;2.80;;
5022;SDS011;2530;47.990;7.866;2024-02-21T03:07:40;4.23;;;2.90;;
5022;SDS011;2530;47.990;7.866;2024-02-21T03:10:06;5.03;;;2.78;;
5022;SDS011;2530;47.990;7.866;2024-02-21T03:12:32;5.57;;;2.40;;
5022;SDS011;2530;47.990;7.866;2024-02-21T03:14:58;3.70;;;2.60;;
5022;SDS011;2530;47.990;7.866;2024-02-21T03:17:24;4.77;;;2.60;;
5022;SDS011;2530;47.990;7.866;2024-02-21T03:19:50;3.10;;;2.70;;
5022;SDS011;2530;47.990;7.866;2024-02-21T03:22:15;8.32;;;2.60;;
5022;SDS011;2530;47.990;7.866;2024-02-21T03:24:41;5.07;;;3.20;;
5022;SDS011;2530;47.990;7.866;2024-02-21T03:27:07;4.90;;;2.70;;
5022;SDS011;2530;47.990;7.866;2024-02-21T03:29:33;5.70;;;2.30;;
5022;SDS011;2530;47.990;7.866;2024-02-21T03:31:59;4.87;;;2.73;;
5022;SDS011;2530;47.990;7.866;2024-02-21T03:34:24;4.90;;;2.43;;
5022;SDS011;2530;47.990;7.866;2024-02-21T03:36:50;3.97;;;2.30;;
5022;SDS011;2530;47.990;7.866;2024-02-21T03:39:15;3.97;;;2.37;;
5022;SDS011;2530;47.990;7.866;2024-02-21T03:41:41;7.80;;;2.80;;
5022;SDS011;2530;47.990;7.866;2024-02-21T03:44:06;2.75;;;2.50;;
5022;SDS011;2530;47.990;7.866;2024-02-21T03:46:32;5.03;;;2.30;;
5022;SDS011;2530;47.990;7.866;2024-02-21T03:48:57;4.40;;;2.40;;
5022;SDS011;2530;47.990;7.866;2024-02-21T03:51:23;5.07;;;2.30;;
5022;SDS011;2530;47.990;7.866;2024-02-21T03:53:49;5.32;;;2.35;;
5022;SDS011;2530;47.990;7.866;2024-02-21T03:56:14;4.97;;;2.93;;
5022;SDS011;2530;47.990;7.866;2024-02-21T03:58:40;3.20;;;2.90;;
5022;SDS011;2530;47.990;7.866;2024-02-21T04:01:05;7.10;;;2.70;;
5022;SDS011;2530;47.990;7.866;2024-02-21T04:03:31;3.75;;;2.38;;
5022;SDS011;2530;47.990;7.866;2024-02-21T04:05:56;4.28;;;2.83;;
5022;SDS011;2530;47.990;7.866;2024-02-21T04:08:25;5.90;;;2.78;;
5022;SDS011;2530;47.990;7.866;2024-02-21T04:10:50;7.30;;;2.90;;
5022;SDS011;2530;47.990;7.866;2024-02-21T04:13:16;5.10;;;2.87;;
5022;SDS011;2530;47.990;7.866;2024-02-21T04:15:42;5.93;;;2.87;;
5022;SDS011;2530;47.990;7.866;2024-02-21T04:18:07;5.37;;;2.40;;
5022;SDS011;2530;47.990;7.866;2024-02-21T04:20:33;4.17;;;2.53;;
5022;SDS011;2530;47.990;7.866;2024-02-21T04:22:59;4.70;;;2.67;;
5022;SDS011;2530;47.990;7.866;2024-02-21T04:25:25;3.10;;;2.65;;
5022;SDS011;2530;47.990;7.866;2024-02-21T04:27:51;7.10;;;3.38;;
5022;SDS011;2530;47.990;7.866;2024-02-21T04:30:16;4.73;;;2.90;;
5022;SDS011;2530;47.990;7.866;2024-02-21T04:32:42;5.33;;;2.53;;
5022;SDS011;2530;47.990;7.866;2024-02-21T04:35:08;4.73;;;2.50;;
5022;SDS011;2530;47.990;7.866;2024-02-21T04:37:33;4.93;;;2.50;;
5022;SDS011;2530;47.990;7.866;2024-02-21T04:39:59;6.50;;;2.77;;
5022;SDS011;2530;47.990;7.866;2024-02-21T04:42:25;3.60;;;2.70;;
5022;SDS011;2530;47.990;7.866;2024-02-21T04:44:51;6.83;;;2.80;;
5022;SDS011;2530;47.990;7.866;2024-02-21T04:47:16;3.72;;;2.53;;
5022;SDS011;2530;47.990;7.866;2024-02-21T04:49:42;5.53;;;2.80;;
5022;SDS011;2530;47.990;7.866;2024-02-21T04:52:08;2.97;;;2.50;;
5022;SDS011;2530;47.990;7.866;2024-02-21T04:54:33;3.87;;;2.50;;
5022;SDS011;2530;47.990;7.866;2024-02-21T04:57:00;5.00;;;2.20;;
5022;SDS011;2530;47.990;7.866;2024-02-21T04:59:26;4.63;;;2.60;;
5022;SDS011;2530;47.990;7.866;2024-02-21T05:01:51;6.10;;;2.90;;
5022;SDS011;2530;47.990;7.866;2024-02-21T05:04:17;6.27;;;3.10;;
5022;SDS011;2530;47.990;7.866;2024-02-21T05:06:42;5.90;;;2.77;;
5022;SDS011;2530;47.990;7.866;2024-02-21T05:09:08;4.47;;;2.70;;
5022;SDS011;2530;47.990;7.866;2024-02-21T05:11:37;4.20;;;3.00;;
5022;SDS011;2530;47.990;7.866;2024-02-21T05:14:03;4.28;;;2.78;;
5022;SDS011;2530;47.990;7.866;2024-02-21T05:16:29;6.22;;;3.15;;
5022;SDS011;2530;47.990;7.866;2024-02-21T05:18:55;6.43;;;2.67;;
5022;SDS011;2530;47.990;7.866;2024-02-21T05:21:22;4.72;;;2.72;;
5022;SDS011;2530;47.990;7.866;2024-02-21T05:23:53;4.75;;;2.72;;
5022;SDS011;2530;47.990;7.866;2024-02-21T05:26:25;4.10;;;2.67;;
5022;SDS011;2530;47.990;7.866;2024-02-21T05:28:52;3.65;;;2.63;;
5022;SDS011;2530;47.990;7.866;2024-02-21T05:31:18;6.53;;;2.57;;
5022;SDS011;2530;47.990;7.866;2024-02-21T05:33:44;3.05;;;1.92;;
5022;SDS011;2530;47.990;7.866;2024-02-21T05:36:10;4.32;;;2.60;;
5022;SDS011;2530;47.990;7.866;2024-02-21T05:38:36;3.10;;;2.10;;
5022;SDS011;2530;47.990;7.866;2024-02-21T05:41:02;3.80;;;2.80;;
5022;SDS011;2530;47.990;7.866;2024-02-21T05:43:28;3.00;;;2.60;;
5022;SDS011;2530;47.990;7.866;2024-02-21T05:45:54;5.27;;;2.87;;
5022;SDS011;2530;47.990;7.866;2024-02-21T05:48:20;8.27;;;3.13;;
5022;SDS011;2530;47.990;7.866;2024-02-21T05:50:46;3.67;;;2.60;;
5022;SDS011;2530;47.990;7.866;2024-02-21T05:53:12;5.30;;;2.95;;
5022;SDS011;2530;47.990;7.866;2024-02-21T05:55:38;5.73;;;2.60;;
5022;SDS011;2530;47.990;7.866;2024-02-21T05:58:04;5.35;;;3.05;;
5022;SDS011;2530;47.990;7.866;2024-02-21T06:00:30;3.20;;;2.63;;
5022;SDS011;2530;47.990;7.866;2024-02-21T06:02:57;6.18;;;2.47;;
5022;SDS011;2530;47.990;7.866;2024-02-21T06:05:22;7.28;;;3.25;;
5022;SDS011;2530;47.990;7.866;2024-02-21T06:07:48;5.23;;;3.03;;
5022;SDS011;2530;47.990;7.866;2024-02-21T06:10:13;4.10;;;2.90;;
5022;SDS011;2530;47.990;7.866;2024-02-21T06:12:39;4.00;;;2.40;;
5022;SDS011;2530;47.990;7.866;2024-02-21T06:15:05;6.73;;;3.00;;
5022;SDS011;2530;47.990;7.866;2024-02-21T06:17:31;5.18;;;2.90;;
5022;SDS011;2530;47.990;7.866;2024-02-21T06:19:56;5.03;;;2.65;;
5022;SDS011;2530;47.990;7.866;2024-02-21T06:22:22;3.65;;;2.10;;
5022;SDS011;2530;47.990;7.866;2024-02-21T06:24:48;3.60;;;2.40;;
5022;SDS011;2530;47.990;7.866;2024-02-21T06:27:13;3.10;;;2.67;;
5022;SDS011;2530;47.990;7.866;2024-02-21T06:29:41;4.50;;;2.70;;
5022;SDS011;2530;47.990;7.866;2024-02-21T06:32:07;3.30;;;2.80;;
5022;SDS011;2530;47.990;7.866;2024-02-21T06:34:32;5.50;;;3.03;;
5022;SDS011;2530;47.990;7.866;2024-02-21T06:36:58;6.97;;;3.17;;
5022;SDS011;2530;47.990;7.866;2024-02-21T06:39:23;5.30;;;3.35;;
5022;SDS011;2530;47.990;7.866;2024-02-21T06:41:49;5.53;;;3.20;;
5022;SDS011;2530;47.990;7.866;2024-02-21T06:44:18;5.40;;;2.70;;
5022;SDS011;2530;47.990;7.866;2024-02-21T06:46:44;4.18;;;2.60;;
5022;SDS011;2530;47.990;7.866;2024-02-21T06:49:10;3.30;;;2.40;;
5022;SDS011;2530;47.990;7.866;2024-02-21T06:51:41;3.40;;;2.60;;
5022;SDS011;2530;47.990;7.866;2024-02-21T06:54:08;3.28;;;2.63;;
5022;SDS011;2530;47.990;7.866;2024-02-21T06:56:34;3.50;;;2.50;;
5022;SDS011;2530;47.990;7.866;2024-02-21T06:59:00;2.58;;;2.10;;
5022;SDS011;2530;47.990;7.866;2024-02-21T07:01:26;5.85;;;3.05;;
5022;SDS011;2530;47.990;7.866;2024-02-21T07:03:52;4.90;;;2.40;;
5022;SDS011;2530;47.990;7.866;2024-02-21T07:06:17;4.97;;;2.60;;
5022;SDS011;2530;47.990;7.866;2024-02-21T07:08:43;7.30;;;3.00;;
5022;SDS011;2530;47.990;7.866;2024-02-21T07:11:08;5.23;;;2.70;;
5022;SDS011;2530;47.990;7.866;2024-02-21T07:13:34;4.60;;;2.50;;
5022;SDS011;2530;47.990;7.866;2024-02-21T07:16:00;5.60;;;2.80;;
5022;SDS011;2530;47.990;7.866;2024-02-21T07:18:25;3.67;;;2.30;;
5022;SDS011;2530;47.990;7.866;2024-02-21T07:20:51;5.03;;;2.50;;
5022;SDS011;2530;47.990;7.866;2024-02-21T07:23:17;5.35;;;2.83;;
5022;SDS011;2530;47.990;7.866;2024-02-21T07:25:43;5.25;;;2.85;;
5022;SDS011;2530;47.990;7.866;2024-02-21T07:28:09;4.77;;;2.80;;
5022;SDS011;2530;47.990;7.866;2024-02-21T07:30:34;3.08;;;2.33;;
5022;SDS011;2530;47.990;7.866;2024-02-21T07:33:00;6.28;;;3.00;;
5022;SDS011;2530;47.990;7.866;2024-02-21T07:35:25;3.60;;;2.65;;
5022;SDS011;2530;47.990;7.866;2024-02-21T07:37:51;4.90;;;2.97;;
5022;SDS011;2530;47.990;7.866;2024-02-21T07:40:17;5.95;;;3.67;;
5022;SDS011;2530;47.990;7.866;2024-02-21T07:42:42;4.38;;;2.70;;
5022;SDS011;2530;47.990;7.866;2024-02-21T07:45:09;5.78;;;3.20;;
5022;SDS011;2530;47.990;7.866;2024-02-21T07:47:35;5.25;;;3.00;;
5022;SDS011;2530;47.990;7.866;2024-02-21T07:50:02;4.28;;;3.30;;
5022;SDS011;2530;47.990;7.866;2024-02-21T07:52:28;4.00;;;2.90;;
5022;SDS011;2530;47.990;7.866;2024-02-21T07:54:53;6.47;;;3.80;;
5022;SDS011;2530;47.990;7.866;2024-02-21T07:57:19;4.57;;;3.10;;
5022;SDS011;2530;47.990;7.866;2024-02-21T07:59:45;4.03;;;3.20;;
5022;SDS011;2530;47.990;7.866;2024-02-21T08:02:12;4.85;;;3.50;;
5022;SDS011;2530;47.990;7.866;2024-02-21T08:04:39;5.95;;;3.20;;
5022;SDS011;2530;47.990;7.866;2024-02-21T08:07:04;6.07;;;2.90;;
5022;SDS011;2530;47.990;7.866;2024-02-21T08:09:30;4.83;;;2.50;;
5022;SDS011;2530;47.990;7.866;2024-02-21T08:11:55;5.07;;;2.83;;
5022;SDS011;2530;47.990;7.866;2024-02-21T08:14:21;3.60;;;2.67;;
5022;SDS011;2530;47.990;7.866;2024-02-21T08:16:47;5.45;;;3.13;;
5022;SDS011;2530;47.990;7.866;2024-02-21T08:19:13;7.43;;;2.70;;
5022;SDS011;2530;47.990;7.866;2024-02-21T08:21:39;2.80;;;2.33;;
5022;SDS011;2530;47.990;7.866;2024-02-21T08:24:04;3.38;;;2.38;;
5022;SDS011;2530;47.990;7.866;2024-02-21T08:26:30;4.60;;;2.45;;
5022;SDS011;2530;47.990;7.866;2024-02-21T08:28:56;5.93;;;2.63;;
5022;SDS011;2530;47.990;7.866;2024-02-21T08:31:25;4.13;;;2.63;;
5022;SDS011;2530;47.990;7.866;2024-02-21T08:33:58;5.75;;;2.40;;
5022;SDS011;2530;47.990;7.866;2024-02-21T08:36:28;4.10;;;2.20;;
5022;SDS011;2530;47.990;7.866;2024-02-21T08:38:57;3.53;;;2.53;;
5022;SDS011;2530;47.990;7.866;2024-02-21T08:41:23;3.00;;;2.40;;
5022;SDS011;2530;47.990;7.866;2024-02-21T08:43:52;5.95;;;2.30;;
5022;SDS011;2530;47.990;7.866;2024-02-21T08:46:22;3.97;;;2.20;;
5022;SDS011;2530;47.990;7.866;2024-02-21T08:48:49;4.53;;;2.72;;
5022;SDS011;2530;47.990;7.866;2024-02-21T08:51:16;2.83;;;1.93;;
5022;SDS011;2530;47.990;7.866;2024-02-21T08:53:41;3.17;;;1.92;;
5022;SDS011;2530;47.990;7.866;2024-02-21T08:56:07;4.23;;;2.20;;
5022;SDS011;2530;47.990;7.866;2024-02-21T08:58:33;4.53;;;2.10;;
5022;SDS011;2530;47.990;7.866;2024-02-21T09:01:00;3.90;;;2.40;;
5022;SDS011;2530;47.990;7.866;2024-02-21T09:03:25;4.43;;;2.20;;
5022;SDS011;2530;47.990;7.866;2024-02-21T09:05:51;4.37;;;2.33;;
5022;SDS011;2530;47.990;7.866;2024-02-21T09:08:17;3.90;;;2.30;;
5022;SDS011;2530;47.990;7.866;2024-02-21T09:10:43;3.65;;;2.50;;
5022;SDS011;2530;47.990;7.866;2024-02-21T09:13:09;2.97;;;2.10;;
5022;SDS011;2530;47.990;7.866;2024-02-21T09:15:34;3.03;;;2.30;;
5022;SDS011;2530;47.990;7.866;2024-02-21T09:18:00;5.40;;;2.80;;
5022;SDS011;2530;47.990;7.866;2024-02-21T09:20:25;3.30;;;2.10;;
5022;SDS011;2530;47.990;7.866;2024-02-21T09:22:51;3.28;;;2.35;;
5022;SDS011;2530;47.990;7.866;2024-02-21T09:25:17;3.92;;;2.10;;
5022;SDS011;2530;47.990;7.866;2024-02-21T09:27:43;4.05;;;2.33;;
5022;SDS011;2530;47.990;7.866;2024-02-21T09:30:10;6.18;;;2.60;;
5022;SDS011;2530;47.990;7.866;2024-02-21T09:32:35;3.13;;;2.67;;
5022;SDS011;2530;47.990;7.866;2024-02-21T09:35:01;3.83;;;2.40;;
5022;SDS011;2530;47.990;7.866;2024-02-21T09:37:27;4.57;;;2.60;;
5022;SDS011;2530;47.990;7.866;2024-02-21T09:39:52;5.87;;;3.13;;
5022;SDS011;2530;47.990;7.866;2024-02-21T09:42:20;4.25;;;2.55;;
5022;SDS011;2530;47.990;7.866;2024-02-21T09:44:46;3.80;;;2.30;;
5022;SDS011;2530;47.990;7.866;2024-02-21T09:47:16;4.88;;;2.67;;
5022;SDS011;2530;47.990;7.866;2024-02-21T09:49:47;4.00;;;2.40;;
5022;SDS011;2530;47.990;7.866;2024-02-21T09:52:13;4.45;;;2.50;;
5022;SDS011;2530;47.990;7.866;2024-02-21T09:54:40;3.63;;;2.10;;
5022;SDS011;2530;47.990;7.866;2024-02-21T09:57:09;3.45;;;2.10;;
5022;SDS011;2530;47.990;7.866;2024-02-21T09:59:37;4.10;;;2.20;;
5022;SDS011;2530;47.990;7.866;2024-02-21T10:02:02;3.42;;;2.70;;
5022;SDS011;2530;47.990;7.866;2024-02-21T10:04:29;4.55;;;2.10;;
5022;SDS011;2530;47.990;7.866;2024-02-21T10:06:55;4.13;;;2.00;;
5022;SDS011;2530;47.990;7.866;2024-02-21T10:11:47;3.70;;;1.70;;
5022;SDS011;2530;47.990;7.866;2024-02-21T10:14:14;5.03;;;1.90;;
5022;SDS011;2530;47.990;7.866;2024-02-21T10:16:41;2.40;;;1.60;;
5022;SDS011;2530;47.990;7.866;2024-02-21T10:19:15;4.63;;;1.73;;
5022;SDS011;2530;47.990;7.866;2024-02-21T10:21:44;2.72;;;1.98;;
5022;SDS011;2530;47.990;7.866;2024-02-21T10:24:26;3.30;;;1.63;;
5022;SDS011;2530;47.990;7.866;2024-02-21T10:27:07;2.55;;;1.80;;
5022;SDS011;2530;47.990;7.866;2024-02-21T10:29:34;3.10;;;1.50;;
5022;SDS011;2530;47.990;7.866;2024-02-21T10:32:09;3.05;;;1.70;;
5022;SDS011;2530;47.990;7.866;2024-02-21T10:34:37;4.03;;;1.70;;
5022;SDS011;2530;47.990;7.866;2024-02-21T10:37:04;1.42;;;1.30;;
5022;SDS011;2530;47.990;7.866;2024-02-21T10:39:37;3.20;;;1.55;;
5022;SDS011;2530;47.990;7.866;2024-02-21T10:42:03;2.88;;;1.63;;
5022;SDS011;2530;47.990;7.866;2024-02-21T10:44:30;2.42;;;1.50;;
5022;SDS011;2530;47.990;7.866;2024-02-21T10:47:03;2.90;;;1.40;;
5022;SDS011;2530;47.990;7.866;2024-02-21T10:49:32;1.70;;;1.40;;
5022;SDS011;2530;47.990;7.866;2024-02-21T10:52:03;2.92;;;1.40;;
5022;SDS011;2530;47.990;7.866;2024-02-21T10:57:15;2.03;;;1.10;;
5022;SDS011;2530;47.990;7.866;2024-02-21T10:59:44;2.50;;;1.10;;
5022;SDS011;2530;47.990;7.866;2024-02-21T11:02:10;4.00;;;1.20;;
5022;SDS011;2530;47.990;7.866;2024-02-21T11:04:36;2.38;;;1.40;;
5022;SDS011;2530;47.990;7.866;2024-02-21T11:07:03;2.30;;;1.17;;
5022;SDS011;2530;47.990;7.866;2024-02-21T11:09:30;2.70;;;1.20;;
5022;SDS011;2530;47.990;7.866;2024-02-21T11:12:02;4.05;;;1.33;;
5022;SDS011;2530;47.990;7.866;2024-02-21T11:14:29;2.55;;;1.17;;
5022;SDS011;2530;47.990;7.866;2024-02-21T11:17:01;2.40;;;1.10;;
5022;SDS011;2530;47.990;7.866;2024-02-21T11:19:28;1.30;;;1.10;;
5022;SDS011;2530;47.990;7.866;2024-02-21T11:21:56;2.65;;;0.98;;
5022;SDS011;2530;47.990;7.866;2024-02-21T11:24:31;2.10;;;0.90;;
5022;SDS011;2530;47.990;7.866;2024-02-21T11:27:14;2.40;;;1.00;;
5022;SDS011;2530;47.990;7.866;2024-02-21T11:29:44;2.92;;;1.00;;
5022;SDS011;2530;47.990;7.866;2024-02-21T11:32:10;3.17;;;1.20;;
5022;SDS011;2530;47.990;7.866;2024-02-21T11:34:40;2.78;;;1.10;;
5022;SDS011;2530;47.990;7.866;2024-02-21T11:40:11;2.83;;;1.00;;
5022;SDS011;2530;47.990;7.866;2024-02-21T11:42:37;3.67;;;1.40;;
5022;SDS011;2530;47.990;7.866;2024-02-21T11:45:14;2.78;;;1.25;;
5022;SDS011;2530;47.990;7.866;2024-02-21T11:47:49;1.88;;;1.17;;
5022;SDS011;2530;47.990;7.866;2024-02-21T11:50:14;3.55;;;1.17;;
5022;SDS011;2530;47.990;7.866;2024-02-21T11:52:40;2.72;;;1.60;;
5022;SDS011;2530;47.990;7.866;2024-02-21T11:55:05;2.10;;;1.10;;
5022;SDS011;2530;47.990;7.866;2024-02-21T11:57:33;1.50;;;1.27;;
5022;SDS011;2530;47.990;7.866;2024-02-21T12:00:10;2.03;;;1.27;;
5022;SDS011;2530;47.990;7.866;2024-02-21T12:02:43;2.30;;;1.60;;
5022;SDS011;2530;47.990;7.866;2024-02-21T12:05:10;3.15;;;1.65;;
5022;SDS011;2530;47.990;7.866;2024-02-21T12:07:39;2.30;;;1.30;;
5022;SDS011;2530;47.990;7.866;2024-02-21T12:10:09;2.42;;;2.08;;
5022;SDS011;2530;47.990;7.866;2024-02-21T12:12:35;2.03;;;1.50;;
5022;SDS011;2530;47.990;7.866;2024-02-21T12:15:04;2.22;;;1.60;;
5022;SDS011;2530;47.990;7.866;2024-02-21T12:17:32;2.50;;;1.60;;
5022;SDS011;2530;47.990;7.866;2024-02-21T12:19:59;2.17;;;1.30;;
5022;SDS011;2530;47.990;7.866;2024-02-21T12:22:25;3.27;;;1.80;;
5022;SDS011;2530;47.990;7.866;2024-02-21T12:24:51;1.30;;;0.80;;
5022;SDS011;2530;47.990;7.866;2024-02-21T12:27:16;3.60;;;1.10;;
5022;SDS011;2530;47.990;7.866;2024-02-21T12:29:42;2.53;;;0.80;;
5022;SDS011;2530;47.990;7.866;2024-02-21T12:32:08;0.90;;;0.65;;
5022;SDS011;2530;47.990;7.866;2024-02-21T12:34:33;2.10;;;0.80;;
5022;SDS011;2530;47.990;7.866;2024-02-21T12:36:59;1.47;;;0.90;;
5022;SDS011;2530;47.990;7.866;2024-02-21T12:39:24;1.33;;;0.73;;
5022;SDS011;2530;47.990;7.866;2024-02-21T12:41:54;1.10;;;0.70;;
5022;SDS011;2530;47.990;7.866;2024-02-21T12:44:21;1.40;;;0.65;;
5022;SDS011;2530;47.990;7.866;2024-02-21T12:46:46;1.17;;;0.73;;
5022;SDS011;2530;47.990;7.866;2024-02-21T12:49:16;2.70;;;0.70;;
5022;SDS011;2530;47.990;7.866;2024-02-21T12:51:43;1.17;;;0.57;;
5022;SDS011;2530;47.990;7.866;2024-02-21T12:54:11;1.98;;;0.70;;
5022;SDS011;2530;47.990;7.866;2024-02-21T12:56:37;1.30;;;0.60;;
5022;SDS011;2530;47.990;7.866;2024-02-21T12:59:02;1.45;;;0.70;;
5022;SDS011;2530;47.990;7.866;2024-02-21T13:01:28;0.70;;;0.30;;
5022;SDS011;2530;47.990;7.866;2024-02-21T13:03:54;1.70;;;0.52;;
5022;SDS011;2530;47.990;7.866;2024-02-21T13:06:20;1.50;;;0.63;;
5022;SDS011;2530;47.990;7.866;2024-02-21T13:08:46;1.70;;;1.00;;
5022;SDS011;2530;47.990;7.866;2024-02-21T13:11:12;1.70;;;0.80;;
5022;SDS011;2530;47.990;7.866;2024-02-21T13:13:37;1.30;;;0.85;;
5022;SDS011;2530;47.990;7.866;2024-02-21T13:16:03;1.90;;;0.70;;
5022;SDS011;2530;47.990;7.866;2024-02-21T13:18:29;0.90;;;0.70;;
5022;SDS011;2530;47.990;7.866;2024-02-21T13:20:55;2.22;;;0.60;;
5022;SDS011;2530;47.990;7.866;2024-02-21T13:23:20;1.00;;;0.70;;
5022;SDS011;2530;47.990;7.866;2024-02-21T13:25:46;0.70;;;0.50;;
5022;SDS011;2530;47.990;7.866;2024-02-21T13:28:12;1.08;;;0.70;;
5022;SDS011;2530;47.990;7.866;2024-02-21T13:30:39;1.60;;;0.50;;
5022;SDS011;2530;47.990;7.866;2024-02-21T13:33:05;1.67;;;0.80;;
5022;SDS011;2530;47.990;7.866;2024-02-21T13:35:32;1.58;;;0.60;;
5022;SDS011;2530;47.990;7.866;2024-02-21T13:37:57;1.60;;;0.70;;
5022;SDS011;2530;47.990;7.866;2024-02-21T13:40:23;1.20;;;0.60;;
5022;SDS011;2530;47.990;7.866;2024-02-21T13:42:50;1.40;;;1.00;;
5022;SDS011;2530;47.990;7.866;2024-02-21T13:45:16;1.02;;;0.80;;
5022;SDS011;2530;47.990;7.866;2024-02-21T13:47:42;0.90;;;0.70;;
5022;SDS011;2530;47.990;7.866;2024-02-21T13:50:07;1.10;;;0.80;;
5022;SDS011;2530;47.990;7.866;2024-02-21T13:52:36;1.73;;;1.05;;
5022;SDS011;2530;47.990;7.866;2024-02-21T13:55:02;1.98;;;0.80;;
5022;SDS011;2530;47.990;7.866;2024-02-21T13:57:28;2.40;;;0.70;;
5022;SDS011;2530;47.990;7.866;2024-02-21T13:59:54;1.80;;;0.80;;
5022;SDS011;2530;47.990;7.866;2024-02-21T14:02:19;1.90;;;0.90;;
5022;SDS011;2530;47.990;7.866;2024-02-21T14:04:46;1.73;;;1.25;;
5022;SDS011;2530;47.990;7.866;2024-02-21T14:07:12;2.10;;;1.10;;
5022;SDS011;2530;47.990;7.866;2024-02-21T14:09:37;2.37;;;1.10;;
5022;SDS011;2530;47.990;7.866;2024-02-21T14:12:03;1.87;;;1.07;;
5022;SDS011;2530;47.990;7.866;2024-02-21T14:14:32;1.80;;;1.17;;
5022;SDS011;2530;47.990;7.866;2024-02-21T14:16:59;1.42;;;1.00;;
5022;SDS011;2530;47.990;7.866;2024-02-21T14:19:25;1.80;;;1.10;;
5022;SDS011;2530;47.990;7.866;2024-02-21T14:21:50;2.13;;;1.10;;
5022;SDS011;2530;47.990;7.866;2024-02-21T14:24:16;2.78;;;1.20;;
5022;SDS011;2530;47.990;7.866;2024-02-21T14:26:42;3.25;;;1.40;;
5022;SDS011;2530;47.990;7.866;2024-02-21T14:29:07;1.40;;;1.30;;
5022;SDS011;2530;47.990;7.866;2024-02-21T14:31:36;1.40;;;0.80;;
5022;SDS011;2530;47.990;7.866;2024-02-21T14:34:01;3.08;;;1.35;;
5022;SDS011;2530;47.990;7.866;2024-02-21T14:36:27;2.78;;;1.10;;
5022;SDS011;2530;47.990;7.866;2024-02-21T14:38:53;1.30;;;1.10;;
5022;SDS011;2530;47.990;7.866;2024-02-21T14:41:18;3.37;;;1.30;;
5022;SDS011;2530;47.990;7.866;2024-02-21T14:43:44;2.42;;;1.27;;
5022;SDS011;2530;47.990;7.866;2024-02-21T14:46:11;1.10;;;0.90;;
5022;SDS011;2530;47.990;7.866;2024-02-21T14:48:37;2.50;;;1.20;;
5022;SDS011;2530;47.990;7.866;2024-02-21T14:51:03;1.20;;;0.90;;
5022;SDS011;2530;47.990;7.866;2024-02-21T14:53:29;1.58;;;1.00;;
5022;SDS011;2530;47.990;7.866;2024-02-21T14:55:55;0.90;;;0.80;;
5022;SDS011;2530;47.990;7.866;2024-02-21T14:58:22;1.60;;;0.93;;
5022;SDS011;2530;47.990;7.866;2024-02-21T15:00:49;1.80;;;1.10;;
5022;SDS011;2530;47.990;7.866;2024-02-21T15:03:15;2.30;;;1.00;;
5022;SDS011;2530;47.990;7.866;2024-02-21T15:05:44;1.95;;;1.08;;
5022;SDS011;2530;47.990;7.866;2024-02-21T15:08:10;2.10;;;1.30;;
5022;SDS011;2530;47.990;7.866;2024-02-21T15:10:36;1.17;;;0.80;;
5022;SDS011;2530;47.990;7.866;2024-02-21T15:13:02;3.00;;;1.30;;
5022;SDS011;2530;47.990;7.866;2024-02-21T15:15:28;1.67;;;1.00;;
5022;SDS011;2530;47.990;7.866;2024-02-21T15:17:54;1.00;;;0.90;;